createdAt,value
2022-08-17T00:00:34.246Z,29.03
2022-08-17T00:03:17.163Z,29.06
2022-08-17T00:05:53.081Z,29.06
2022-08-17T00:08:28.119Z,29.03
2022-08-17T00:10:56.539Z,29.01
2022-08-17T00:13:37.267Z,28.98
2022-08-17T00:16:09.346Z,28.98
2022-08-17T00:18:58.185Z,28.98
2022-08-17T00:21:26.822Z,29.00
2022-08-17T00:24:15.468Z,29.04
2022-08-17T00:26:45.128Z,29.03
2022-08-17T00:29:14.918Z,28.98
2022-08-17T00:31:49.314Z,28.96
2022-08-17T00:34:18.060Z,28.94
2022-08-17T00:36:45.748Z,28.93
2022-08-17T00:39:13.589Z,28.91
2022-08-17T00:41:42.390Z,28.88
2022-08-17T00:44:12.385Z,28.87
2022-08-17T00:46:42.331Z,28.86
2022-08-17T00:49:12.222Z,28.85
2022-08-17T00:51:59.162Z,28.85
2022-08-17T00:54:30.587Z,28.86
2022-08-17T00:57:06.006Z,28.85
2022-08-17T00:59:38.364Z,28.85
2022-08-17T01:02:09.686Z,28.85
2022-08-17T01:04:37.988Z,28.85
2022-08-17T01:07:06.305Z,28.84
2022-08-17T01:09:34.378Z,28.83
2022-08-17T01:12:02.109Z,28.81
2022-08-17T01:14:29.907Z,28.79
2022-08-17T01:16:57.774Z,28.77
2022-08-17T01:19:29.533Z,28.76
2022-08-17T01:22:01.392Z,28.75
2022-08-17T01:24:29.910Z,28.76
2022-08-17T01:26:57.796Z,28.75
2022-08-17T01:29:25.907Z,28.74
2022-08-17T01:31:57.102Z,28.73
2022-08-17T01:34:36.825Z,28.72
2022-08-17T01:37:12.795Z,28.76
2022-08-17T01:39:56.540Z,28.77
2022-08-17T01:42:33.688Z,28.76
2022-08-17T01:45:09.293Z,28.76
2022-08-17T01:47:37.543Z,28.76
2022-08-17T01:50:11.212Z,28.74
2022-08-17T01:52:39.547Z,28.73
2022-08-17T01:55:08.031Z,28.72
2022-08-17T01:57:35.940Z,28.70
2022-08-17T02:00:07.387Z,28.69
2022-08-17T02:02:35.364Z,28.68
2022-08-17T02:05:03.894Z,28.67
2022-08-17T02:07:31.810Z,28.65
2022-08-17T02:10:20.106Z,28.68
2022-08-17T02:12:49.911Z,28.68
2022-08-17T02:15:17.972Z,28.66
2022-08-17T02:17:45.910Z,28.63
2022-08-17T02:20:13.952Z,28.61
2022-08-17T02:22:45.176Z,28.59
2022-08-17T02:25:16.304Z,28.59
2022-08-17T02:27:44.349Z,28.58
2022-08-17T02:30:59.055Z,28.57
2022-08-17T02:33:04.197Z,28.60
2022-08-17T02:35:37.480Z,28.63
2022-08-17T02:38:06.385Z,28.62
2022-08-17T02:40:36.389Z,28.59
2022-08-17T02:43:04.617Z,28.58
2022-08-17T02:45:32.627Z,28.56
2022-08-17T02:48:00.320Z,28.55
2022-08-17T02:50:28.250Z,28.53
2022-08-17T02:53:02.202Z,28.51
2022-08-17T02:55:34.938Z,28.51
2022-08-17T02:58:03.878Z,28.51
2022-08-17T03:00:35.314Z,28.50
2022-08-17T03:03:05.142Z,28.50
2022-08-17T03:05:34.819Z,28.49
2022-08-17T03:08:05.343Z,28.48
2022-08-17T03:10:33.351Z,28.47
2022-08-17T03:13:01.857Z,28.46
2022-08-17T03:15:32.488Z,28.45
2022-08-17T03:18:02.036Z,28.44
2022-08-17T03:20:32.524Z,28.43
2022-08-17T03:23:02.024Z,28.44
2022-08-17T03:25:34.479Z,28.43
2022-08-17T03:28:03.300Z,28.44
2022-08-17T03:30:31.261Z,28.43
2022-08-17T03:33:02.714Z,28.42
2022-08-17T03:35:33.188Z,28.42
2022-08-17T03:38:01.491Z,28.41
2022-08-17T03:40:34.440Z,28.40
2022-08-17T03:43:20.148Z,28.43
2022-08-17T03:46:24.882Z,28.43
2022-08-17T03:49:13.232Z,28.46
2022-08-17T03:51:59.497Z,28.51
2022-08-17T03:54:46.308Z,28.50
2022-08-17T03:57:14.361Z,28.49
2022-08-17T03:59:42.465Z,28.43
2022-08-17T04:02:19.092Z,28.41
2022-08-17T04:04:51.013Z,28.43
2022-08-17T04:07:20.780Z,28.43
2022-08-17T04:09:49.248Z,28.43
2022-08-17T04:12:19.470Z,28.44
2022-08-17T04:14:52.677Z,28.44
2022-08-17T04:17:28.195Z,28.44
2022-08-17T04:19:56.370Z,28.47
2022-08-17T04:22:31.045Z,28.46
2022-08-17T04:25:08.223Z,28.47
2022-08-17T04:27:36.547Z,28.47
2022-08-17T04:30:05.942Z,28.47
2022-08-17T04:33:03.409Z,28.48
2022-08-17T04:35:30.336Z,28.62
2022-08-17T04:38:00.366Z,28.69
2022-08-17T04:40:46.974Z,28.70
2022-08-17T04:43:18.821Z,28.73
2022-08-17T04:45:56.313Z,28.75
2022-08-17T04:48:36.033Z,28.76
2022-08-17T04:51:09.732Z,28.77
2022-08-17T04:53:40.762Z,28.81
2022-08-17T04:56:15.908Z,28.78
2022-08-17T04:58:46.066Z,28.79
2022-08-17T05:01:14.986Z,28.80
2022-08-17T05:03:43.583Z,28.62
2022-08-17T05:06:11.561Z,28.45
2022-08-17T05:08:39.401Z,28.31
2022-08-17T05:11:07.723Z,28.16
2022-08-17T05:13:35.663Z,28.02
2022-08-17T05:16:04.654Z,27.97
2022-08-17T05:18:32.685Z,27.86
2022-08-17T05:21:00.760Z,28.06
2022-08-17T05:23:35.546Z,27.95
2022-08-17T05:26:19.874Z,27.78
2022-08-17T05:28:57.239Z,27.67
2022-08-17T05:31:29.482Z,27.58
2022-08-17T05:33:58.025Z,27.52
2022-08-17T05:36:41.553Z,27.44
2022-08-17T05:39:16.398Z,27.36
2022-08-17T05:41:48.375Z,27.34
2022-08-17T05:44:17.183Z,27.29
2022-08-17T05:46:50.387Z,27.24
2022-08-17T05:49:28.164Z,27.20
2022-08-17T05:52:10.174Z,27.18
2022-08-17T05:55:27.935Z,27.16
2022-08-17T05:58:14.644Z,27.20
2022-08-17T06:01:02.213Z,27.24
2022-08-17T06:03:40.742Z,27.23
2022-08-17T06:06:25.275Z,27.27
2022-08-17T06:09:11.378Z,27.33
2022-08-17T06:11:58.762Z,27.33
2022-08-17T06:14:56.221Z,27.31
2022-08-17T06:17:25.619Z,27.30
2022-08-17T06:19:56.942Z,27.28
2022-08-17T06:22:33.405Z,27.26
2022-08-17T06:25:03.701Z,27.28
2022-08-17T06:27:42.073Z,27.30
2022-08-17T06:30:17.284Z,27.27
2022-08-17T06:32:47.375Z,27.26
2022-08-17T06:35:20.259Z,27.27
2022-08-17T06:38:06.470Z,27.25
2022-08-17T06:40:55.556Z,27.27
2022-08-17T06:43:44.003Z,27.30
2022-08-17T06:46:22.064Z,27.29
2022-08-17T06:49:16.940Z,27.29
2022-08-17T06:52:37.206Z,27.31
2022-08-17T06:55:06.350Z,27.42
2022-08-17T06:57:38.359Z,27.44
2022-08-17T07:00:23.942Z,27.45
2022-08-17T07:03:02.804Z,27.48
2022-08-17T07:05:42.481Z,27.49
2022-08-17T07:08:26.430Z,27.52
2022-08-17T07:10:58.230Z,27.53
2022-08-17T07:13:51.213Z,27.52
2022-08-17T07:16:28.835Z,27.55
2022-08-17T07:18:57.547Z,27.58
2022-08-17T07:21:39.442Z,27.57
2022-08-17T07:24:45.378Z,27.56
2022-08-17T07:27:23.728Z,27.64
2022-08-17T07:29:57.697Z,27.68
2022-08-17T07:32:31.861Z,27.67
2022-08-17T07:35:01.221Z,27.68
2022-08-17T07:37:32.464Z,27.69
2022-08-17T07:40:16.959Z,27.71
2022-08-17T07:43:08.013Z,27.80
2022-08-17T07:46:10.741Z,27.87
2022-08-17T07:48:40.860Z,27.93
2022-08-17T07:51:39.564Z,27.93
2022-08-17T07:54:16.629Z,27.98
2022-08-17T07:56:52.751Z,28.02
2022-08-17T07:59:27.166Z,28.04
2022-08-17T08:02:06.270Z,28.07
2022-08-17T08:05:00.750Z,28.10
2022-08-17T08:07:36.017Z,28.19
2022-08-17T08:10:16.890Z,28.23
2022-08-17T08:12:53.753Z,28.24
2022-08-17T08:15:25.677Z,28.24
2022-08-17T08:18:03.086Z,28.26
2022-08-17T08:20:55.907Z,28.26
2022-08-17T08:23:57.592Z,28.33
2022-08-17T08:26:33.634Z,28.43
2022-08-17T08:29:19.242Z,28.43
2022-08-17T08:32:05.339Z,28.47
2022-08-17T08:35:02.763Z,28.45
2022-08-17T08:37:52.686Z,28.51
2022-08-17T08:40:55.787Z,28.54
2022-08-17T08:43:32.381Z,28.60
2022-08-17T08:46:26.981Z,28.62
2022-08-17T08:49:38.985Z,28.68
2022-08-17T08:52:31.112Z,28.74
2022-08-17T08:55:09.130Z,28.78
2022-08-17T08:57:44.751Z,28.83
2022-08-17T09:00:19.410Z,28.84
2022-08-17T09:03:07.488Z,28.83
2022-08-17T09:06:33.417Z,28.86
2022-08-17T09:09:09.447Z,28.93
2022-08-17T09:12:02.203Z,28.93
2022-08-17T09:14:46.686Z,28.92
2022-08-17T09:17:20.095Z,28.91
2022-08-17T09:20:00.172Z,28.93
2022-08-17T09:22:38.966Z,28.92
2022-08-17T09:25:09.356Z,28.95
2022-08-17T09:27:50.729Z,28.95
2022-08-17T09:30:19.755Z,28.97
2022-08-17T09:32:52.078Z,28.99
2022-08-17T09:35:36.516Z,29.01
2022-08-17T09:38:32.282Z,29.07
2022-08-17T09:41:14.401Z,29.12
2022-08-17T09:44:22.586Z,29.15
2022-08-17T09:47:17.437Z,29.23
2022-08-17T09:50:00.535Z,29.28
2022-08-17T09:52:29.958Z,29.29
2022-08-17T09:54:59.482Z,29.31
2022-08-17T09:57:52.553Z,29.29
2022-08-17T10:00:25.113Z,29.32
2022-08-17T10:02:58.689Z,29.31
2022-08-17T10:05:32.118Z,29.31
2022-08-17T10:08:22.897Z,29.32
2022-08-17T10:11:05.607Z,29.37
2022-08-17T10:14:36.086Z,29.41
2022-08-17T10:16:58.779Z,29.55
2022-08-17T10:19:55.079Z,29.59
2022-08-17T10:22:53.208Z,29.61
2022-08-17T10:25:54.648Z,29.63
2022-08-17T10:28:30.252Z,29.63
2022-08-17T10:31:34.469Z,29.62
2022-08-17T10:34:06.806Z,29.65
2022-08-17T10:37:25.474Z,29.69
2022-08-17T10:40:02.746Z,29.73
2022-08-17T10:42:49.040Z,29.71
2022-08-17T10:45:26.288Z,29.74
2022-08-17T10:48:07.186Z,29.77
2022-08-17T10:50:44.399Z,29.79
2022-08-17T10:53:32.397Z,29.78
2022-08-17T10:56:12.217Z,29.82
2022-08-17T10:58:58.991Z,29.85
2022-08-17T11:01:32.875Z,29.85
2022-08-17T11:04:18.769Z,29.86
2022-08-17T11:06:51.863Z,29.87
2022-08-17T11:09:41.513Z,29.87
2022-08-17T11:12:09.483Z,29.93
2022-08-17T11:15:10.042Z,29.93
2022-08-17T11:17:38.087Z,30.04
2022-08-17T11:20:26.145Z,30.08
2022-08-17T11:23:18.569Z,30.14
2022-08-17T11:25:52.700Z,30.11
2022-08-17T11:28:28.121Z,30.12
2022-08-17T11:30:59.522Z,30.13
2022-08-17T11:33:36.757Z,30.11
2022-08-17T11:36:14.976Z,30.14
2022-08-17T11:39:06.621Z,30.16
2022-08-17T11:41:49.831Z,30.22
2022-08-17T11:44:39.301Z,30.25
2022-08-17T11:47:34.038Z,30.35
2022-08-17T11:50:39.066Z,30.34
2022-08-17T11:53:07.111Z,30.34
2022-08-17T11:55:41.900Z,30.30
2022-08-17T11:58:30.453Z,30.32
2022-08-17T12:01:13.607Z,30.35
2022-08-17T12:03:53.865Z,30.37
2022-08-17T12:06:30.366Z,30.44
2022-08-17T12:09:14.281Z,30.45
2022-08-17T12:11:55.601Z,30.50
2022-08-17T12:15:09.567Z,30.62
2022-08-17T12:17:51.901Z,30.68
2022-08-17T12:20:37.396Z,30.76
2022-08-17T12:23:24.984Z,30.83
2022-08-17T12:25:59.513Z,30.83
2022-08-17T12:28:28.955Z,30.80
2022-08-17T12:31:01.688Z,30.82
2022-08-17T12:33:29.518Z,30.83
2022-08-17T12:36:03.187Z,30.85
2022-08-17T12:38:34.883Z,30.87
2022-08-17T12:41:25.257Z,30.89
2022-08-17T12:44:02.766Z,30.93
2022-08-17T12:46:35.031Z,30.96
2022-08-17T12:49:32.376Z,30.96
2022-08-17T12:52:18.598Z,31.09
2022-08-17T12:55:12.468Z,31.10
2022-08-17T12:57:40.212Z,31.16
2022-08-17T13:00:11.091Z,31.14
2022-08-17T13:02:43.260Z,31.12
2022-08-17T13:05:20.712Z,31.08
2022-08-17T13:07:48.743Z,31.06
2022-08-17T13:10:27.390Z,31.04
2022-08-17T13:13:03.373Z,31.03
2022-08-17T13:15:38.203Z,31.02
2022-08-17T13:18:50.947Z,31.02
2022-08-17T13:21:27.046Z,31.04
2022-08-17T13:24:08.087Z,30.97
2022-08-17T13:26:42.604Z,30.96
2022-08-17T13:29:25.695Z,30.98
2022-08-17T13:32:16.803Z,30.99
2022-08-17T13:35:11.912Z,31.04
2022-08-17T13:37:36.639Z,31.08
2022-08-17T13:40:10.102Z,31.06
2022-08-17T13:42:50.243Z,31.04
2022-08-17T13:45:36.666Z,31.04
2022-08-17T13:48:12.569Z,31.06
2022-08-17T13:50:50.768Z,31.05
2022-08-17T13:53:54.560Z,31.04
2022-08-17T13:56:39.506Z,31.08
2022-08-17T13:59:53.762Z,31.08
2022-08-17T14:02:27.650Z,31.18
2022-08-17T14:04:58.492Z,31.17
2022-08-17T14:07:30.788Z,31.10
2022-08-17T14:10:08.370Z,31.08
2022-08-17T14:12:38.968Z,31.08
2022-08-17T14:15:08.688Z,31.03
2022-08-17T14:17:39.047Z,31.01
2022-08-17T14:20:10.424Z,31.02
2022-08-17T14:22:42.899Z,30.98
2022-08-17T14:25:11.872Z,30.97
2022-08-17T14:27:52.234Z,30.96
2022-08-17T14:30:24.323Z,30.97
2022-08-17T14:32:53.109Z,30.99
2022-08-17T14:35:23.257Z,30.99
2022-08-17T14:37:51.982Z,30.96
2022-08-17T14:40:22.765Z,30.96
2022-08-17T14:42:51.421Z,30.95
2022-08-17T14:45:30.003Z,30.94
2022-08-17T14:48:04.359Z,30.98
2022-08-17T14:50:35.547Z,31.01
2022-08-17T14:53:05.576Z,31.03
2022-08-17T14:55:34.627Z,31.06
2022-08-17T14:58:04.329Z,31.10
2022-08-17T15:00:33.155Z,31.32
2022-08-17T15:03:01.874Z,31.27
2022-08-17T15:05:33.841Z,31.18
2022-08-17T15:08:02.940Z,31.15
2022-08-17T15:10:31.748Z,31.16
2022-08-17T15:13:00.543Z,31.16
2022-08-17T15:15:29.758Z,31.14
2022-08-17T15:17:58.733Z,31.14
2022-08-17T15:20:28.548Z,31.42
2022-08-17T15:22:59.214Z,31.66
2022-08-17T15:25:29.654Z,31.52
2022-08-17T15:27:58.153Z,31.40
2022-08-17T15:30:26.662Z,31.30
2022-08-17T15:32:55.566Z,31.23
2022-08-17T15:35:27.727Z,31.18
2022-08-17T15:38:06.177Z,31.15
2022-08-17T15:40:37.941Z,31.14
2022-08-17T15:43:07.975Z,31.12
2022-08-17T15:45:35.740Z,31.11
2022-08-17T15:48:04.197Z,31.08
2022-08-17T15:50:32.205Z,31.04
2022-08-17T15:53:02.332Z,31.01
2022-08-17T15:55:31.349Z,30.98
2022-08-17T15:57:59.195Z,30.96
2022-08-17T16:00:28.895Z,30.94
2022-08-17T16:03:44.760Z,30.93
2022-08-17T16:05:48.018Z,30.97
2022-08-17T16:08:20.719Z,30.98
2022-08-17T16:10:50.225Z,30.95
2022-08-17T16:13:19.407Z,30.93
2022-08-17T16:15:57.037Z,30.94
2022-08-17T16:18:31.956Z,30.92
2022-08-17T16:21:26.290Z,30.93
2022-08-17T16:23:57.906Z,30.96
2022-08-17T16:26:27.201Z,30.95
2022-08-17T16:28:56.449Z,30.92
2022-08-17T16:31:24.317Z,30.90
2022-08-17T16:34:03.838Z,30.89
2022-08-17T16:36:41.798Z,30.91
2022-08-17T16:39:26.435Z,30.94
2022-08-17T16:41:56.779Z,30.93
2022-08-17T16:44:25.906Z,30.90
2022-08-17T16:46:54.649Z,30.91
2022-08-17T16:49:34.462Z,30.91
2022-08-17T16:52:12.649Z,30.91
2022-08-17T16:54:44.145Z,30.90
2022-08-17T16:57:17.410Z,30.90
2022-08-17T16:59:48.122Z,30.88
2022-08-17T17:02:31.568Z,30.87
2022-08-17T17:05:03.055Z,30.87
2022-08-17T17:07:50.340Z,30.86
2022-08-17T17:10:50.925Z,30.87
2022-08-17T17:13:35.328Z,30.88
2022-08-17T17:16:12.016Z,30.86
2022-08-17T17:19:03.396Z,30.79
2022-08-17T17:22:00.221Z,30.80
2022-08-17T17:24:40.548Z,30.85
2022-08-17T17:27:33.116Z,30.83
2022-08-17T17:30:15.928Z,30.80
2022-08-17T17:33:07.788Z,30.74
2022-08-17T17:35:55.603Z,30.74
2022-08-17T17:38:53.028Z,30.75
2022-08-17T17:41:30.318Z,30.75
2022-08-17T17:44:07.655Z,30.76
2022-08-17T17:46:38.845Z,30.71
2022-08-17T17:49:06.742Z,30.68
2022-08-17T17:52:06.505Z,30.64
2022-08-17T17:54:50.387Z,30.70
2022-08-17T17:57:56.077Z,30.66
2022-08-17T18:00:25.837Z,30.63
2022-08-17T18:03:11.651Z,30.58
2022-08-17T18:05:44.542Z,30.48
2022-08-17T18:08:34.974Z,30.36
2022-08-17T18:11:24.962Z,30.29
2022-08-17T18:14:25.623Z,30.22
2022-08-17T18:16:58.703Z,30.17
2022-08-17T18:19:29.043Z,30.16
2022-08-17T18:22:19.844Z,30.10
2022-08-17T18:24:57.299Z,30.02
2022-08-17T18:27:35.864Z,29.97
2022-08-17T18:30:25.915Z,29.94
2022-08-17T18:32:54.115Z,29.89
2022-08-17T18:35:29.459Z,29.87
2022-08-17T18:38:20.496Z,29.79
2022-08-17T18:40:59.270Z,29.78
2022-08-17T18:43:44.400Z,29.71
2022-08-17T18:46:31.551Z,29.69
2022-08-17T18:49:02.181Z,29.65
2022-08-17T18:51:42.638Z,29.58
2022-08-17T18:54:24.680Z,29.51
2022-08-17T18:56:56.334Z,29.46
2022-08-17T18:59:45.292Z,29.40
2022-08-17T19:02:27.199Z,29.39
2022-08-17T19:05:27.763Z,29.39
2022-08-17T19:08:23.066Z,29.39
2022-08-17T19:10:55.103Z,29.39
2022-08-17T19:13:32.293Z,29.36
2022-08-17T19:16:15.392Z,29.32
2022-08-17T19:18:48.481Z,29.30
2022-08-17T19:21:27.915Z,29.27
2022-08-17T19:23:59.015Z,29.24
2022-08-17T19:26:54.246Z,29.20
2022-08-17T19:29:41.019Z,29.22
2022-08-17T19:32:10.545Z,29.24
2022-08-17T19:34:39.449Z,29.18
2022-08-17T19:37:22.703Z,29.14
2022-08-17T19:40:51.078Z,29.08
2022-08-17T19:43:42.713Z,29.10
2022-08-17T19:46:27.702Z,29.09
2022-08-17T19:49:22.741Z,29.41
2022-08-17T19:52:07.362Z,29.62
2022-08-17T19:54:39.840Z,29.44
2022-08-17T19:57:19.568Z,29.24
2022-08-17T19:59:55.118Z,29.09
2022-08-17T20:02:34.878Z,28.97
2022-08-17T20:05:06.626Z,28.92
2022-08-17T20:07:52.942Z,28.99
2022-08-17T20:10:26.566Z,29.32
2022-08-17T20:12:57.681Z,29.67
2022-08-17T20:15:28.172Z,29.94
2022-08-17T20:17:59.211Z,30.12
2022-08-17T20:20:56.055Z,30.24
2022-08-17T20:23:32.260Z,30.35
2022-08-17T20:26:19.147Z,30.09
2022-08-17T20:29:10.470Z,29.70
2022-08-17T20:31:51.088Z,29.44
2022-08-17T20:34:33.513Z,29.21
2022-08-17T20:37:10.953Z,29.04
2022-08-17T20:39:42.745Z,28.93
2022-08-17T20:42:22.278Z,28.80
2022-08-17T20:44:52.985Z,28.71
2022-08-17T20:47:27.175Z,28.62
2022-08-17T20:50:02.439Z,28.58
2022-08-17T20:52:42.697Z,28.54
2022-08-17T20:55:51.819Z,28.46
2022-08-17T20:58:30.967Z,28.49
2022-08-17T21:01:00.414Z,28.47
2022-08-17T21:03:28.190Z,28.41
2022-08-17T21:06:18.423Z,28.36
2022-08-17T21:08:59.026Z,28.33
2022-08-17T21:11:56.793Z,28.24
2022-08-17T21:14:22.068Z,28.20
2022-08-17T21:17:17.529Z,28.19
2022-08-17T21:20:11.573Z,28.13
2022-08-17T21:22:52.450Z,28.11
2022-08-17T21:25:41.925Z,28.09
2022-08-17T21:29:00.965Z,28.07
2022-08-17T21:31:34.831Z,28.05
2022-08-17T21:34:14.767Z,28.04
2022-08-17T21:36:44.168Z,28.02
2022-08-17T21:39:14.984Z,27.97
2022-08-17T21:41:53.808Z,27.96
2022-08-17T21:44:33.283Z,27.94
2022-08-17T21:47:19.060Z,27.92
2022-08-17T21:49:46.985Z,27.90
2022-08-17T21:52:17.741Z,27.89
2022-08-17T21:54:57.814Z,27.85
2022-08-17T21:57:27.727Z,27.85
2022-08-17T22:00:00.508Z,27.83
2022-08-17T22:02:37.481Z,27.82
2022-08-17T22:05:12.894Z,27.81
2022-08-17T22:07:42.267Z,27.81
2022-08-17T22:10:33.251Z,27.79
2022-08-17T22:13:17.057Z,27.76
2022-08-17T22:15:47.984Z,27.77
2022-08-17T22:18:22.571Z,27.76
2022-08-17T22:20:55.768Z,27.74
2022-08-17T22:23:44.981Z,27.72
2022-08-17T22:26:15.639Z,27.72
2022-08-17T22:28:47.576Z,27.69
2022-08-17T22:31:18.570Z,27.68
2022-08-17T22:33:51.187Z,27.65
2022-08-17T22:36:29.054Z,27.63
2022-08-17T22:39:23.094Z,27.62
2022-08-17T22:42:00.264Z,27.67
2022-08-17T22:44:34.126Z,27.67
2022-08-17T22:47:29.586Z,27.61
2022-08-17T22:50:01.375Z,27.63
2022-08-17T22:53:02.773Z,27.63
2022-08-17T22:55:50.428Z,27.57
2022-08-17T22:58:41.179Z,27.51
2022-08-17T23:01:31.615Z,27.49
2022-08-17T23:04:06.650Z,27.46
2022-08-17T23:06:36.538Z,27.43
2022-08-17T23:09:05.887Z,27.42
2022-08-17T23:11:49.062Z,27.38
2022-08-17T23:14:19.930Z,27.37
2022-08-17T23:16:49.084Z,27.36
2022-08-17T23:19:19.758Z,27.35
2022-08-17T23:21:48.799Z,27.34
2022-08-17T23:24:25.544Z,27.32
2022-08-17T23:26:57.519Z,27.33
2022-08-17T23:29:27.734Z,27.33
2022-08-17T23:31:57.944Z,27.33
2022-08-17T23:34:26.550Z,27.30
2022-08-17T23:36:55.653Z,27.29
2022-08-17T23:39:27.978Z,27.26
2022-08-17T23:42:01.137Z,27.26
2022-08-17T23:44:28.990Z,27.25
2022-08-17T23:46:57.529Z,27.22
2022-08-17T23:49:25.357Z,27.19
2022-08-17T23:51:56.675Z,27.16
2022-08-17T23:54:28.269Z,27.15
2022-08-17T23:56:56.351Z,27.14
2022-08-17T23:59:24.132Z,27.15
